Main page
METAR-TAF:

METAR-TAF

Airports :

Ostend–Bruges International Airport

Ostend, Belgium

latitude: 51-12N, longitude: 002-52E, elevation: 4 m

Current weather observation

The report was made 34 minutes ago, at 05:20 UTC
Wind 1 kt from variable directions
Temperature 15°C
Humidity 82%
Pressure 1018 hPa
Visibility: 8000 m

METAR: EBOS 250520Z VRB01KT 8000 NSC 15/12 Q1018 NOSIG

Time: 07:54 (05:54 UTC)

Forecast

The report was made 53 minutes ago, at 05:01 UTC
Forecast valid from 25 at 06 UTC to 26 at 12 UTC
Wind 3 kt from variable directions
Visibility 10 km or more
no clouds below 1500 m and no cumulonimbus

TAF: EBOS 250501Z 2506/2612 VRB03KT CAVOK

Weather observations and forecasts of more than 4000 airports (METAR and TAF reports).

The available stations are represented by yellow and red dots on the map.

Hover mouse over dot to see the name of the station.

Then click to see weather observations and forecasts.

To change the map : click on the green buttons with a black cross to zoom in, on the green button with a dash to zoom out, or on the green arrows for adjacent maps.


METAR-TAF: